Aviation Digital Data Service (ADDS)

Output produced by METARs form (2203 UTC 24 March 2019)
found at http://www.aviationweather.gov/metar/data/
 
TAF SABE 241700Z 2418/2518 20015G30KT 9999 BKN020 TX22/2419Z TN13/2410Z 
     BECMG 2423/2502 20010KT CAVOK 
       
TAF SACO 241700Z 2418/2518 18010KT 9999 FEW035TCU TX16/2518Z TN14/2510Z 
     BECMG 2500/2503 14005KT 9999 BKN025 
     BECMG 2510/2514 07005KT 5000 DZ BR OVC010 
     BECMG 2515/2518 02005KT 9999 NSW BKN020 OVC015
       
TAF SARI 241700Z 2418/2518 VRB05KT 9999 BKN030 FEW050CB TX31/2419Z TN19/2509Z 
     PROB30 2419/2423 8000 SHRA 
     BECMG 2503/2505 CAVOK
       
TAF SAVC 241700Z 2418/2518 09010KT 9999 FEW035 BKN090 TX19/2419Z TN10/2510Z 
     PROB30 
     TEMPO 2420/2501 02010KT 9999 SCT030 
     BECMG 2503/2504 32010KT 
     BECMG 2513/2515 16010KT
       
TAF SAME 241700Z 2418/2518 14005KT CAVOK TX26/2420Z TN15/2510Z
       
TAF SARF 241700Z 2418/2518 16005KT 9999 SCT030 TX31/2419Z TN18/2509Z 
     BECMG 2503/2505 CAVOK 
     PROB30 2507/2511 5000 BR NSC
       
TAF SASJ 241700Z 2418/2518 09005KT 9999 BKN030 TX28/2518Z TN16/2510Z 
     BECMG 2509/2511 5000 BR SCT015 BKN020 
     BECMG 2513/2515 02005KT 9999 NSW SCT015
       
TAF SASA 241700Z 2418/2518 09005KT 9999 BKN030 TX28/2518Z TN16/2510Z 
     TEMPO 2503/2506 18010KT 8000 RA SCT025 BKN035 
     BECMG 2509/2511 5000 BR SCT015 BKN020 
     BECMG 2513/2515 02005KT 9999 NSW SCT015
       
TAF SASA 241700Z 2418/2518 09005KT 9999 BKN030 TX28/2518Z TN16/2510Z 
     TEMPO 2503/2506 18010KT 8000 RA SCT025 BKN035 
     BECMG 2509/2511 5000 BR SCT015 BKN020 
     BECMG 2513/2515 02005KT 9999 NSW SCT015
       
TAF SAZM 241700Z 2418/2518 23020G30KT 7000 DZRA BKN007 BKN020 TX16/2418Z
TN11/2510Z 
     TEMPO 2420/2422 5000 SHRA BKN007 BKN020 FEW030TCU 
     BECMG 2506/2508 18015KT 9999 BKN015
       
TAF SAEZ 241700Z 2418/2518 23015G25KT 9999 SCT035 TX20/2518Z TN08/2510Z 
     TEMPO 2418/2421 9999 BKN030 
     BECMG 2423/2502 19010KT CAVOK 
     PROB30 
     TEMPO 2506/2511 19005KT 7000 SCT025 
     BECMG 2512/2515 17010KT 9999 SCT040
       
TAF SARP 241700Z 2418/2518 18005KT CAVOK TX31/2419Z TN19/2509Z
       
TAF SAZN 241700Z 2418/2518 05005KT CAVOK TX22/2419Z TN09/2510Z
       
TAF SARE 241700Z 2418/2518 16005KT 9999 SCT030 TX31/2419Z TN16/2509Z 
     BECMG 2503/2505 CAVOK 
     PROB30 2507/2511 5000 BR NSC
       
TAF SAWG 241700Z 2418/2518 29010KT 9999 FEW030 TX19/2419Z TN05/2510Z 
     PROB30 
     TEMPO 2419/2501 27015KT 9999 SHRA SCT030 OVC045 
     BECMG 2502/2504 25015G35KT 9999 NSW SCT030
       
TAF SAWE 241700Z 2418/2518 29020G30KT 9999 SCT030 TX14/2419Z TN04/2510Z 
     PROB30 
     TEMPO 2501/2506 27020G35KT 9999 SHRA SCT025 OVC045 
     BECMG 2507/2509 9999 NSW SCT030
       
TAF SAAR 241700Z 2418/2518 20015KT CAVOK TX24/2418Z TN09/2510Z 
     BECMG 2422/2501 16005KT 
       
TAF SASA 241700Z 2418/2518 09005KT 9999 BKN030 TX28/2518Z TN16/2510Z 
     TEMPO 2503/2506 18010KT 8000 RA SCT025 BKN035 
     BECMG 2509/2511 5000 BR SCT015 BKN020 
     BECMG 2513/2515 02005KT 9999 NSW SCT015
       
TAF SASA 241700Z 2418/2518 09005KT 9999 BKN030 TX28/2518Z TN16/2510Z 
     TEMPO 2503/2506 18010KT 8000 RA SCT025 BKN035 
     BECMG 2509/2511 5000 BR SCT015 BKN020 
     BECMG 2513/2515 02005KT 9999 NSW SCT015
       
TAF SAZS 241700Z 2418/2518 VRB03KT CAVOK TX18/2419Z TN01/2410Z 
     BECMG 2502/2504 18005KT 
     BECMG 2514/2516 05010KT 
       
TAF SADF 241700Z 2418/2518 23015KT 9999 SCT030 TX22/2418Z TN12/2510Z 
     BECMG 2500/2502 18010KT CAVOK
       
TAF SANT 241700Z 2418/2518 23005KT 9999 FEW030 TX18/2518Z TN15/2510Z 
     BECMG 2414/2416 20010KT 9999 SCT025 
     TEMPO 2506/2512 18010KT 8000 RA DZ BR OVC008 
     BECMG 2514/2516 18005KT 9999 NSW BKN010 BKN020 
       
TAF SAWH 241700Z 2418/2518 VRB03KT 9999 SCT030 TX15/2419Z TN02/2510Z 
     BECMG 2421/2423 32015G30KT 4000 SHRA SCT030TCU OVC045 
     BECMG 2510/2512 27015G35KT 9999 -DZ SCT030 BKN060